Time;durP1;ratioP1;P1;durP2;ratioP2;P2;SDS_P1;SDS_P2;PMS_P1;PMS_P2;Temp;Humidity;BMP_temperature;BMP_pressure;BME280_temperature;BME280_humidity;BME280_pressure;Samples;Min_cycle;Max_cycle;Signal;HPM_P1;HPM_P2
2022/08/09 00:02:18;;;;;;;;;;;;;;;17.73;67.97;102715.97;5033880;28;20276;-36
2022/08/09 00:04:43;;;;;;;;;;;;;;;17.72;67.57;102706.09;5033930;28;19921;-36
2022/08/09 00:07:09;;;;;;;;;;;;;;;17.70;68.17;102710.94;5033214;28;19913;-36
2022/08/09 00:09:34;;;;;;;;;;;;;;;17.68;67.45;102707.59;5033692;28;19975;-36
2022/08/09 00:11:59;;;;;;;;;;;;;;;17.67;68.61;102705.13;5033387;28;19917;-36
2022/08/09 00:14:24;;;;;;;;;;;;;;;17.66;68.33;102709.72;5033615;28;19913;-36
2022/08/09 00:16:49;;;;;;;;;;;;;;;17.59;69.26;102711.75;5033580;28;19996;-45
2022/08/09 00:19:15;;;;;;;;;;;;;;;17.56;68.66;102704.00;5033013;28;19913;-36
2022/08/09 00:21:40;;;;;;;;;;;;;;;17.53;68.85;102712.69;5033797;28;19913;-36
2022/08/09 00:24:05;;;;;;;;;;;;;;;17.49;68.87;102706.81;5033575;28;19936;-36
2022/08/09 00:26:31;;;;;;;;;;;;;;;17.44;72.76;102706.69;5033013;28;19957;-36
2022/08/09 00:28:56;;;;;;;;;;;;;;;17.42;70.12;102697.03;5033034;28;19967;-36
2022/08/09 00:31:23;;;;;;;;;;;;;;;17.41;69.17;102700.84;5032872;28;19974;-35
2022/08/09 00:33:48;;;;;;;;;;;;;;;17.39;70.76;102700.25;5032727;28;19913;-36
2022/08/09 00:36:14;;;;;;;;;;;;;;;17.37;70.31;102688.69;5033835;28;20043;-35
2022/08/09 00:38:39;;;;;;;;;;;;;;;17.36;69.66;102697.97;5033565;28;19920;-35
2022/08/09 00:41:05;;;;;;;;;;;;;;;17.36;69.98;102697.97;5033557;28;19956;-36
2022/08/09 00:43:30;;;;;;;;;;;;;;;17.34;69.53;102703.69;5033192;28;20008;-36
2022/08/09 00:45:56;;;;;;;;;;;;;;;17.33;70.17;102703.91;5033025;28;19913;-36
2022/08/09 00:48:21;;;;;;;;;;;;;;;17.30;69.92;102704.38;5032995;28;19919;-35
2022/08/09 00:50:46;;;;;;;;;;;;;;;17.28;69.68;102704.63;5033507;28;20219;-36
2022/08/09 00:53:11;;;;;;;;;;;;;;;17.26;69.12;102704.00;5032867;28;19913;-36
2022/08/09 00:55:37;;;;;;;;;;;;;;;17.25;69.57;102700.44;5032954;28;19933;-36
2022/08/09 00:58:02;;;;;;;;;;;;;;;17.23;69.67;102709.94;5032565;28;19913;-36
2022/08/09 01:00:27;;;;;;;;;;;;;;;17.22;69.13;102717.28;5065316;28;19917;-36
2022/08/09 01:02:56;;;;;;;;;;;;;;;17.21;69.00;102714.78;5032692;28;19925;-35
2022/08/09 01:05:27;;;;;;;;;;;;;;;17.19;70.17;102708.72;5033723;28;19920;-36
2022/08/09 01:07:55;;;;;;;;;;;;;;;17.15;71.86;102719.28;5033274;28;19956;-35
2022/08/09 01:10:27;;;;;;;;;;;;;;;17.11;70.44;102720.78;5033280;28;19917;-36
2022/08/09 01:13:16;;;;;;;;;;;;;;;17.10;69.65;102721.88;5032800;28;20037;-35
2022/08/09 01:15:44;;;;;;;;;;;;;;;17.07;69.23;102710.53;5037627;28;19913;-36
2022/08/09 01:18:11;;;;;;;;;;;;;;;17.05;69.59;102716.25;5032995;28;19913;-35
2022/08/09 01:20:40;;;;;;;;;;;;;;;17.04;69.59;102717.31;5033005;28;19913;-35
2022/08/09 01:23:17;;;;;;;;;;;;;;;17.02;69.83;102713.97;5032349;28;19920;-35
2022/08/09 01:25:59;;;;;;;;;;;;;;;17.00;70.11;102716.09;5032943;28;19913;-35
2022/08/09 01:28:25;;;;;;;;;;;;;;;16.99;69.31;102715.28;5033032;28;19913;-35
2022/08/09 01:30:52;;;;;;;;;;;;;;;17.00;69.90;102710.63;5032938;28;19913;-35
2022/08/09 01:33:18;;;;;;;;;;;;;;;16.98;69.23;102708.16;5032495;28;19960;-35
2022/08/09 01:35:52;;;;;;;;;;;;;;;16.97;69.91;102705.63;5033289;28;20387;-35
2022/08/09 01:38:19;;;;;;;;;;;;;;;16.95;69.38;102705.03;5033520;28;20341;-35
2022/08/09 01:40:51;;;;;;;;;;;;;;;16.94;69.48;102706.09;5036331;28;20289;-36
2022/08/09 01:43:17;;;;;;;;;;;;;;;16.92;70.41;102708.19;5036292;28;19913;-36
2022/08/09 01:45:43;;;;;;;;;;;;;;;16.88;69.87;102701.53;5035992;28;19913;-36
2022/08/09 01:48:09;;;;;;;;;;;;;;;16.84;70.09;102705.78;5036281;28;19913;-35
2022/08/09 01:50:35;;;;;;;;;;;;;;;16.80;70.79;102708.13;5035916;28;20004;-35
2022/08/09 01:53:01;;;;;;;;;;;;;;;16.76;69.92;102706.91;5035808;28;19960;-36
2022/08/09 01:55:28;;;;;;;;;;;;;;;16.73;70.72;102712.81;5036036;28;19912;-35
2022/08/09 01:57:54;;;;;;;;;;;;;;;16.67;71.01;102706.34;5035791;28;19960;-35
2022/08/09 02:00:20;;;;;;;;;;;;;;;16.63;72.82;102704.28;5036407;28;19954;-35
2022/08/09 02:02:48;;;;;;;;;;;;;;;16.60;71.45;102716.53;5035799;28;20412;-35
2022/08/09 02:05:14;;;;;;;;;;;;;;;16.58;71.03;102712.31;5035699;28;19913;-35
2022/08/09 02:07:49;;;;;;;;;;;;;;;16.54;70.70;102719.28;5035594;28;19913;-35
2022/08/09 02:10:17;;;;;;;;;;;;;;;16.54;70.57;102719.28;5036171;28;19917;-36
2022/08/09 02:12:43;;;;;;;;;;;;;;;16.55;71.01;102718.25;5035513;28;20008;-35
2022/08/09 02:15:09;;;;;;;;;;;;;;;16.54;70.40;102714.66;5035790;28;19948;-35
2022/08/09 02:17:36;;;;;;;;;;;;;;;16.54;70.81;102717.41;5035400;28;19959;-35
2022/08/09 02:20:02;;;;;;;;;;;;;;;16.54;70.52;102719.28;5035430;28;19912;-35
2022/08/09 02:22:31;;;;;;;;;;;;;;;16.50;70.76;102713.47;5035291;28;19920;-35
2022/08/09 02:24:57;;;;;;;;;;;;;;;16.46;70.85;102704.88;5035316;28;19958;-35
2022/08/09 02:27:25;;;;;;;;;;;;;;;16.44;72.46;102715.19;5035596;28;19935;-35
2022/08/09 02:29:51;;;;;;;;;;;;;;;16.40;71.34;102713.16;5036036;28;19920;-35
2022/08/09 02:32:19;;;;;;;;;;;;;;;16.39;72.85;102708.72;5034834;28;19913;-35
2022/08/09 02:34:46;;;;;;;;;;;;;;;16.32;72.67;102707.97;5034796;28;19917;-35
2022/08/09 02:37:13;;;;;;;;;;;;;;;16.28;72.08;102704.00;5035613;28;19939;-35
2022/08/09 02:39:42;;;;;;;;;;;;;;;16.25;73.71;102713.50;5035473;28;19920;-35
2022/08/09 02:42:11;;;;;;;;;;;;;;;16.22;72.77;102703.03;5034651;28;19917;-35
2022/08/09 02:44:39;;;;;;;;;;;;;;;16.23;72.59;102705.50;5034873;28;19912;-35
2022/08/09 02:47:07;;;;;;;;;;;;;;;16.25;72.58;102701.72;5035227;28;19917;-35
2022/08/09 02:49:34;;;;;;;;;;;;;;;16.23;72.63;102708.25;5034842;28;19917;-35
2022/08/09 02:52:00;;;;;;;;;;;;;;;16.21;72.38;102702.19;5034767;28;19925;-35
2022/08/09 02:54:26;;;;;;;;;;;;;;;16.21;72.76;102701.34;5034763;28;20281;-35
2022/08/09 02:56:53;;;;;;;;;;;;;;;16.20;73.47;102707.84;5034923;28;19913;-35
2022/08/09 02:59:19;;;;;;;;;;;;;;;16.18;73.68;102707.25;5034818;28;19917;-35
2022/08/09 03:01:45;;;;;;;;;;;;;;;16.15;73.40;102699.50;5034894;28;19917;-35
2022/08/09 03:04:11;;;;;;;;;;;;;;;16.13;74.81;102710.66;5034101;28;19924;-35
2022/08/09 03:06:37;;;;;;;;;;;;;;;16.09;74.04;102703.97;5034556;28;19913;-35
2022/08/09 03:09:03;;;;;;;;;;;;;;;16.07;73.59;102700.63;5034435;28;19920;-35
2022/08/09 03:11:29;;;;;;;;;;;;;;;16.04;74.75;102706.50;5034530;28;19912;-35
2022/08/09 03:13:54;;;;;;;;;;;;;;;16.02;75.15;102700.47;5034312;28;20004;-35
2022/08/09 03:16:20;;;;;;;;;;;;;;;16.01;75.38;102697.97;5034386;28;19920;-35
2022/08/09 03:18:46;;;;;;;;;;;;;;;15.95;78.69;102692.31;5035251;28;19913;-35
2022/08/09 03:21:13;;;;;;;;;;;;;;;15.89;75.86;102700.56;5033954;28;19913;-35
2022/08/09 03:23:42;;;;;;;;;;;;;;;15.90;75.02;102703.06;5033800;28;19917;-35
2022/08/09 03:26:08;;;;;;;;;;;;;;;15.92;76.37;102702.84;5034058;28;19917;-35
2022/08/09 03:28:35;;;;;;;;;;;;;;;15.90;75.42;102696.75;5033959;28;20439;-35
2022/08/09 03:31:01;;;;;;;;;;;;;;;15.86;74.85;102698.25;5034396;28;19955;-35
2022/08/09 03:33:27;;;;;;;;;;;;;;;15.93;74.96;102701.78;5033666;28;20242;-35
2022/08/09 03:35:53;;;;;;;;;;;;;;;15.92;74.39;102708.31;5034414;28;20004;-36
2022/08/09 03:38:18;;;;;;;;;;;;;;;15.89;75.03;102714.19;5034382;28;20007;-35
2022/08/09 03:40:43;;;;;;;;;;;;;;;15.86;74.18;102714.63;5033624;28;19924;-35
2022/08/09 03:43:08;;;;;;;;;;;;;;;15.87;75.80;102708.13;5033687;28;19939;-35
2022/08/09 03:45:35;;;;;;;;;;;;;;;15.81;75.26;102707.13;5033485;28;19917;-35
2022/08/09 03:48:00;;;;;;;;;;;;;;;15.81;75.57;102709.88;5033907;28;20020;-35
2022/08/09 03:50:26;;;;;;;;;;;;;;;15.79;74.84;102705.66;5034268;28;19999;-35
2022/08/09 03:52:51;;;;;;;;;;;;;;;15.78;75.12;102710.28;5033365;28;19913;-35
2022/08/09 03:55:18;;;;;;;;;;;;;;;15.78;74.77;102714.91;5033652;28;19931;-35
2022/08/09 03:57:43;;;;;;;;;;;;;;;15.75;75.17;102710.72;5033526;28;19913;-35
2022/08/09 04:00:09;;;;;;;;;;;;;;;15.75;75.03;102707.16;5033655;28;19920;-35
2022/08/09 04:02:35;;;;;;;;;;;;;;;15.70;75.01;102705.94;5064820;28;20357;-35
2022/08/09 04:05:01;;;;;;;;;;;;;;;15.67;75.00;102702.81;5033741;28;19912;-35
2022/08/09 04:07:28;;;;;;;;;;;;;;;15.65;75.44;102703.03;5033062;28;19971;-35
2022/08/09 04:09:53;;;;;;;;;;;;;;;15.62;74.94;102706.19;5033904;28;19917;-35
2022/08/09 04:12:24;;;;;;;;;;;;;;;15.60;74.46;102697.34;5033309;28;19940;-35
2022/08/09 04:14:49;;;;;;;;;;;;;;;15.58;74.99;102696.75;5033724;28;19999;-35
2022/08/09 04:17:14;;;;;;;;;;;;;;;15.57;74.79;102708.72;5032925;28;19971;-35
2022/08/09 04:19:40;;;;;;;;;;;;;;;15.55;74.79;102708.09;5033533;28;20008;-35
2022/08/09 04:22:05;;;;;;;;;;;;;;;15.56;74.76;102715.22;5032896;28;20320;-35
2022/08/09 04:24:30;;;;;;;;;;;;;;;15.57;74.58;102716.06;5033093;28;19913;-35
2022/08/09 04:26:56;;;;;;;;;;;;;;;15.57;74.48;102713.34;5033183;28;19913;-35
2022/08/09 04:29:21;;;;;;;;;;;;;;;15.50;75.63;102705.19;5032796;28;19913;-35
2022/08/09 04:31:46;;;;;;;;;;;;;;;15.53;75.20;102710.22;5033611;28;19913;-35
2022/08/09 04:34:11;;;;;;;;;;;;;;;15.54;75.77;102714.59;5033094;28;19936;-35
2022/08/09 04:36:36;;;;;;;;;;;;;;;15.52;75.60;102719.44;5032850;28;20270;-36
2022/08/09 04:39:03;;;;;;;;;;;;;;;15.52;76.12;102724.03;5033587;28;20373;-35
2022/08/09 04:41:29;;;;;;;;;;;;;;;15.54;75.57;102732.84;5033788;28;19913;-35
2022/08/09 04:43:54;;;;;;;;;;;;;;;15.52;77.11;102729.50;5033117;28;19924;-35
2022/08/09 04:46:19;;;;;;;;;;;;;;;15.47;80.47;102727.44;5033294;28;19913;-35
2022/08/09 04:48:45;;;;;;;;;;;;;;;15.44;79.15;102725.97;5032988;28;19913;-35
2022/08/09 04:51:10;;;;;;;;;;;;;;;15.47;77.86;102735.63;5032936;28;19913;-35
2022/08/09 04:53:35;;;;;;;;;;;;;;;15.46;78.59;102736.66;5032961;28;20016;-35
2022/08/09 04:56:01;;;;;;;;;;;;;;;15.48;78.69;102741.91;5032912;28;20391;-35
2022/08/09 04:58:27;;;;;;;;;;;;;;;15.51;78.43;102734.13;5032875;28;19913;-35
2022/08/09 05:00:52;;;;;;;;;;;;;;;15.56;78.17;102734.28;5032611;28;19920;-35
2022/08/09 05:03:17;;;;;;;;;;;;;;;15.59;77.65;102733.88;5033148;28;19996;-35
2022/08/09 05:05:42;;;;;;;;;;;;;;;15.62;81.62;102730.72;5033501;28;19914;-35
2022/08/09 05:08:07;;;;;;;;;;;;;;;15.63;81.97;102739.72;5032926;28;19920;-35
2022/08/09 05:10:33;;;;;;;;;;;;;;;15.65;80.44;102743.94;5033423;28;19955;-35
2022/08/09 05:12:58;;;;;;;;;;;;;;;15.70;80.41;102738.66;5034769;28;20369;-35
2022/08/09 05:15:23;;;;;;;;;;;;;;;15.78;81.00;102750.38;5036915;28;19917;-35
2022/08/09 05:17:49;;;;;;;;;;;;;;;15.81;81.03;102747.19;5036364;28;19913;-35
2022/08/09 05:20:14;;;;;;;;;;;;;;;15.81;83.28;102748.06;5037076;28;19924;-35
2022/08/09 05:22:39;;;;;;;;;;;;;;;15.88;81.65;102739.81;5036115;28;19956;-36
2022/08/09 05:25:04;;;;;;;;;;;;;;;15.97;81.27;102741.22;5036730;28;20061;-35
2022/08/09 05:27:30;;;;;;;;;;;;;;;16.03;82.68;102747.69;5036026;28;20357;-35
2022/08/09 05:29:55;;;;;;;;;;;;;;;16.07;81.21;102744.28;5036836;28;19912;-35
2022/08/09 05:32:20;;;;;;;;;;;;;;;16.16;81.89;102753.03;5036385;28;20288;-35
2022/08/09 05:34:45;;;;;;;;;;;;;;;16.18;81.07;102761.84;5036272;28;20011;-35
2022/08/09 05:37:10;;;;;;;;;;;;;;;16.26;81.16;102752.56;5036685;28;19913;-35
2022/08/09 05:39:37;;;;;;;;;;;;;;;16.26;83.44;102758.00;5034544;28;19913;-34
2022/08/09 05:42:02;;;;;;;;;;;;;;;16.17;83.83;102758.28;5036090;28;19959;-35
2022/08/09 05:44:27;;;;;;;;;;;;;;;16.19;83.25;102756.16;5036794;28;19953;-35
2022/08/09 05:46:52;;;;;;;;;;;;;;;16.23;82.62;102760.09;5036608;28;20368;-35
2022/08/09 05:49:18;;;;;;;;;;;;;;;16.22;82.34;102766.63;5036748;28;19913;-35
2022/08/09 05:51:43;;;;;;;;;;;;;;;16.30;82.95;102764.66;5035132;28;19917;-35
2022/08/09 05:54:08;;;;;;;;;;;;;;;16.32;84.74;102762.56;5036323;28;20322;-35
2022/08/09 05:56:33;;;;;;;;;;;;;;;16.41;83.19;102762.06;5035873;28;20365;-35
2022/08/09 05:58:59;;;;;;;;;;;;;;;16.54;82.39;102765.72;5035847;28;19936;-35
2022/08/09 06:01:24;;;;;;;;;;;;;;;16.63;82.81;102767.94;5036080;28;19936;-35
2022/08/09 06:03:50;;;;;;;;;;;;;;;16.75;83.10;102767.25;5036108;28;19917;-35
2022/08/09 06:06:15;;;;;;;;;;;;;;;16.84;81.42;102768.63;5035808;28;19913;-35
2022/08/09 06:08:40;;;;;;;;;;;;;;;16.77;83.90;102778.78;5035338;28;19913;-35
2022/08/09 06:11:06;;;;;;;;;;;;;;;16.75;83.45;102773.56;5035849;28;19917;-35
2022/08/09 06:13:31;;;;;;;;;;;;;;;16.83;83.29;102777.88;5035322;28;20062;-35
2022/08/09 06:15:57;;;;;;;;;;;;;;;16.95;82.15;102778.81;5035803;28;20257;-35
2022/08/09 06:18:22;;;;;;;;;;;;;;;17.06;81.38;102779.94;5035678;28;19956;-35
2022/08/09 06:20:47;;;;;;;;;;;;;;;17.18;81.61;102784.44;5035656;28;20361;-35
2022/08/09 06:23:12;;;;;;;;;;;;;;;17.28;81.74;102780.34;5035318;28;19920;-35
2022/08/09 06:25:38;;;;;;;;;;;;;;;17.33;81.46;102775.84;5035134;28;19912;-35
2022/08/09 06:28:04;;;;;;;;;;;;;;;17.32;82.50;102778.78;5035321;28;20012;-35
2022/08/09 06:30:29;;;;;;;;;;;;;;;17.36;81.46;102780.00;5036298;28;19920;-35
2022/08/09 06:32:54;;;;;;;;;;;;;;;17.47;80.84;102776.50;5035815;28;19913;-35
2022/08/09 06:35:20;;;;;;;;;;;;;;;17.54;80.66;102773.69;5035026;28;20238;-35
2022/08/09 06:37:45;;;;;;;;;;;;;;;17.59;80.65;102779.28;5035143;28;19913;-35
2022/08/09 06:40:10;;;;;;;;;;;;;;;17.60;81.70;102781.78;5035300;28;19913;-36
2022/08/09 06:42:36;;;;;;;;;;;;;;;17.59;81.20;102780.13;5034586;28;20292;-35
2022/08/09 06:45:01;;;;;;;;;;;;;;;17.67;80.27;102785.28;5035217;28;19939;-35
2022/08/09 06:47:27;;;;;;;;;;;;;;;17.71;80.69;102788.38;5035631;28;20265;-35
2022/08/09 06:49:52;;;;;;;;;;;;;;;17.73;80.72;102789.84;5034885;28;19920;-35
2022/08/09 06:52:17;;;;;;;;;;;;;;;17.73;81.47;102787.13;5034839;28;19913;-35
2022/08/09 06:54:43;;;;;;;;;;;;;;;17.78;80.29;102785.59;5035391;28;19913;-35
2022/08/09 06:57:08;;;;;;;;;;;;;;;17.84;81.28;102782.75;5034523;28;19913;-35
2022/08/09 06:59:33;;;;;;;;;;;;;;;17.91;80.55;102783.50;5035392;28;19940;-35
2022/08/09 07:01:59;;;;;;;;;;;;;;;17.96;81.28;102791.84;5034623;28;19913;-35
2022/08/09 07:04:24;;;;;;;;;;;;;;;18.04;80.82;102792.56;5035146;28;19917;-35
2022/08/09 07:06:49;;;;;;;;;;;;;;;18.11;79.66;102798.81;5035200;28;19913;-35
2022/08/09 07:09:15;;;;;;;;;;;;;;;18.17;80.18;102809.63;5034809;28;19913;-36
2022/08/09 07:11:40;;;;;;;;;;;;;;;18.17;80.28;102800.59;5034720;28;19913;-35
2022/08/09 07:14:05;;;;;;;;;;;;;;;18.19;79.33;102802.00;5034692;28;19920;-35
2022/08/09 07:16:30;;;;;;;;;;;;;;;18.23;79.99;102802.38;5034837;28;19912;-35
2022/08/09 07:18:56;;;;;;;;;;;;;;;18.27;79.96;102798.94;5034673;28;19935;-35
2022/08/09 07:21:21;;;;;;;;;;;;;;;18.31;79.64;102799.31;5034625;28;19995;-35
2022/08/09 07:23:46;;;;;;;;;;;;;;;18.40;79.39;102799.81;5034284;28;20340;-35
2022/08/09 07:26:11;;;;;;;;;;;;;;;18.39;80.33;102803.59;5034584;28;20351;-35
2022/08/09 07:28:36;;;;;;;;;;;;;;;18.48;79.25;102804.91;5034449;28;20395;-35
2022/08/09 07:31:03;;;;;;;;;;;;;;;18.57;78.60;102800.75;5033417;28;19981;-35
2022/08/09 07:33:28;;;;;;;;;;;;;;;18.66;78.78;102802.09;5034216;28;19920;-35
2022/08/09 07:35:54;;;;;;;;;;;;;;;18.71;78.30;102801.41;5034358;28;19996;-35
2022/08/09 07:38:19;;;;;;;;;;;;;;;18.74;78.49;102804.50;5032857;28;20424;-35
2022/08/09 07:40:44;;;;;;;;;;;;;;;18.80;78.19;102796.41;5034105;28;19958;-34
2022/08/09 07:43:09;;;;;;;;;;;;;;;18.89;77.96;102797.72;5034302;28;19913;-35
2022/08/09 07:45:34;;;;;;;;;;;;;;;19.01;78.31;102801.25;5033940;28;19913;-35
2022/08/09 07:48:00;;;;;;;;;;;;;;;19.00;77.70;102805.09;5033635;28;20352;-36
2022/08/09 07:50:26;;;;;;;;;;;;;;;19.03;77.40;102799.97;5033913;28;19920;-36
2022/08/09 07:52:52;;;;;;;;;;;;;;;19.08;77.25;102810.22;5033805;28;20349;-35
2022/08/09 07:55:17;;;;;;;;;;;;;;;19.13;77.57;102813.06;5033745;28;19944;-35
2022/08/09 07:57:44;;;;;;;;;;;;;;;19.17;76.96;102810.66;5033775;28;19913;-35
2022/08/09 08:00:10;;;;;;;;;;;;;;;19.25;77.00;102810.28;5034441;28;19917;-35
2022/08/09 08:02:35;;;;;;;;;;;;;;;19.34;76.51;102808.00;5033283;28;20332;-35
2022/08/09 08:05:01;;;;;;;;;;;;;;;19.43;76.56;102806.56;5033492;28;19920;-35
2022/08/09 08:07:28;;;;;;;;;;;;;;;19.52;76.02;102810.56;5033567;28;19967;-35
2022/08/09 08:09:53;;;;;;;;;;;;;;;19.60;75.45;102807.47;5034037;28;20357;-35
2022/08/09 08:12:18;;;;;;;;;;;;;;;19.67;75.30;102815.59;5033568;28;20357;-36
2022/08/09 08:14:44;;;;;;;;;;;;;;;19.75;75.00;102809.69;5033872;28;19913;-36
2022/08/09 08:17:09;;;;;;;;;;;;;;;19.85;73.79;102811.78;5033551;28;19920;-36
2022/08/09 08:19:34;;;;;;;;;;;;;;;19.93;73.47;102806.75;5034268;28;19913;-36
2022/08/09 08:22:00;;;;;;;;;;;;;;;20.05;73.84;102804.75;5033430;28;19912;-35
2022/08/09 08:24:25;;;;;;;;;;;;;;;20.16;73.10;102805.78;5033061;28;19913;-35
2022/08/09 08:26:50;;;;;;;;;;;;;;;20.19;72.87;102798.94;5033566;28;19913;-35
2022/08/09 08:29:18;;;;;;;;;;;;;;;20.25;72.71;102798.81;5033299;28;20361;-35
2022/08/09 08:31:43;;;;;;;;;;;;;;;20.33;72.92;102795.63;5033250;28;19913;-35
2022/08/09 08:34:08;;;;;;;;;;;;;;;20.45;72.60;102792.81;5033500;28;19919;-35
2022/08/09 08:36:33;;;;;;;;;;;;;;;20.54;72.61;102791.31;5033213;28;19967;-35
2022/08/09 08:38:59;;;;;;;;;;;;;;;20.61;72.37;102795.84;5033202;28;19920;-35
2022/08/09 08:41:24;;;;;;;;;;;;;;;20.72;72.17;102798.47;5033277;28;19913;-35
2022/08/09 08:43:49;;;;;;;;;;;;;;;20.85;72.32;102793.72;5032977;28;20277;-35
2022/08/09 08:46:16;;;;;;;;;;;;;;;20.97;70.41;102798.00;5032607;28;20011;-35
2022/08/09 08:48:42;;;;;;;;;;;;;;;20.97;69.58;102803.50;5036395;28;19967;-35
2022/08/09 08:51:07;;;;;;;;;;;;;;;21.11;70.53;102811.41;5037361;28;19917;-35
2022/08/09 08:53:32;;;;;;;;;;;;;;;21.16;69.77;102804.03;5037475;28;20372;-35
2022/08/09 08:55:58;;;;;;;;;;;;;;;21.24;69.25;102806.34;5037267;28;19913;-35
2022/08/09 08:58:24;;;;;;;;;;;;;;;21.36;67.25;102814.50;5037023;28;19917;-35
2022/08/09 09:00:50;;;;;;;;;;;;;;;21.48;67.73;102811.66;5037320;28;19913;-36
2022/08/09 09:03:16;;;;;;;;;;;;;;;21.57;65.63;102821.13;5037327;28;19917;-36
2022/08/09 09:05:41;;;;;;;;;;;;;;;21.69;66.27;102807.19;5036644;28;19916;-35
2022/08/09 09:08:07;;;;;;;;;;;;;;;21.73;63.38;102813.84;5036845;28;19924;-35
2022/08/09 09:10:33;;;;;;;;;;;;;;;21.80;63.51;102808.97;5037404;28;19917;-36
2022/08/09 09:12:58;;;;;;;;;;;;;;;21.93;63.73;102810.47;5037220;28;19913;-35
2022/08/09 09:15:23;;;;;;;;;;;;;;;22.04;63.26;102815.00;5037091;28;19923;-36
2022/08/09 09:17:48;;;;;;;;;;;;;;;21.95;59.45;102817.38;5036935;28;20348;-36
2022/08/09 09:20:14;;;;;;;;;;;;;;;22.00;60.79;102820.19;5037416;28;19913;-35
2022/08/09 09:22:48;;;;;;;;;;;;;;;22.09;60.63;102834.31;5036651;28;20284;-35
2022/08/09 09:25:29;;;;;;;;;;;;;;;22.18;61.67;102824.53;5037164;28;19924;-35
2022/08/09 09:27:55;;;;;;;;;;;;;;;22.40;62.41;102812.56;5037033;28;19916;-35
2022/08/09 09:30:20;;;;;;;;;;;;;;;22.61;61.66;102815.25;5037050;28;20058;-35
2022/08/09 09:32:59;;;;;;;;;;;;;;;22.77;59.40;102823.63;5036915;28;20311;-35
2022/08/09 09:35:24;;;;;;;;;;;;;;;22.85;58.49;102812.94;5037186;28;19928;-35
2022/08/09 09:37:52;;;;;;;;;;;;;;;22.85;58.31;102807.41;5036825;28;20012;-35
2022/08/09 09:40:17;;;;;;;;;;;;;;;22.97;57.29;102814.66;5036383;28;20219;-36
2022/08/09 09:42:53;;;;;;;;;;;;;;;23.07;57.38;102801.75;5036492;28;19920;-35
2022/08/09 09:45:18;;;;;;;;;;;;;;;23.20;56.71;102803.22;5036459;28;20269;-36
2022/08/09 09:47:45;;;;;;;;;;;;;;;23.30;57.54;102810.72;5036213;28;19981;-35
2022/08/09 09:50:10;;;;;;;;;;;;;;;23.25;54.87;102811.50;5035870;28;20381;-35
2022/08/09 09:52:47;;;;;;;;;;;;;;;23.28;53.02;102810.16;5034787;28;19983;-35
2022/08/09 09:55:14;;;;;;;;;;;;;;;23.33;52.76;102804.66;5036545;28;20282;-35
2022/08/09 09:57:39;;;;;;;;;;;;;;;23.40;54.71;102805.22;5035640;28;19913;-35
2022/08/09 10:00:20;;;;;;;;;;;;;;;23.45;54.82;102810.75;5034661;28;19920;-36
2022/08/09 10:02:45;;;;;;;;;;;;;;;23.44;51.88;102806.34;5033712;28;19920;-36
2022/08/09 10:05:10;;;;;;;;;;;;;;;23.50;52.39;102805.25;5036078;28;20000;-36
2022/08/09 10:07:36;;;;;;;;;;;;;;;23.65;51.33;102812.78;5035519;28;20368;-36
2022/08/09 10:10:02;;;;;;;;;;;;;;;23.82;51.61;102804.28;5035546;28;20008;-35
2022/08/09 10:12:29;;;;;;;;;;;;;;;23.90;51.66;102804.56;5035619;28;19916;-35
2022/08/09 10:15:03;;;;;;;;;;;;;;;23.92;49.65;102807.06;5035403;28;19917;-35
2022/08/09 10:17:30;;;;;;;;;;;;;;;24.04;49.49;102804.84;5035346;28;20365;-35
2022/08/09 10:19:55;;;;;;;;;;;;;;;24.12;49.84;102806.25;5035352;28;20324;-36
2022/08/09 10:22:36;;;;;;;;;;;;;;;24.03;48.96;102810.66;5035771;28;19913;-36
2022/08/09 10:25:03;;;;;;;;;;;;;;;24.14;50.41;102801.28;5035421;28;19913;-35
2022/08/09 10:27:29;;;;;;;;;;;;;;;24.21;50.02;102792.72;5035380;28;19974;-35
2022/08/09 10:29:55;;;;;;;;;;;;;;;24.32;49.23;102794.38;5035642;28;19966;-36
2022/08/09 10:32:21;;;;;;;;;;;;;;;24.30;47.19;102799.31;5035388;28;20011;-35
2022/08/09 10:34:47;;;;;;;;;;;;;;;24.26;46.61;102801.84;5035681;28;19913;-35
2022/08/09 10:37:12;;;;;;;;;;;;;;;24.35;46.97;102791.88;5034948;28;19921;-35
2022/08/09 10:39:41;;;;;;;;;;;;;;;24.48;47.84;102786.91;5034999;28;19966;-36
2022/08/09 10:42:07;;;;;;;;;;;;;;;24.63;45.94;102776.66;5035671;28;19913;-35
2022/08/09 10:44:33;;;;;;;;;;;;;;;24.81;47.33;102774.41;5035446;28;20281;-36
2022/08/09 10:47:01;;;;;;;;;;;;;;;24.84;47.24;102780.22;5035317;28;19914;-36
2022/08/09 10:49:38;;;;;;;;;;;;;;;24.83;45.64;102777.72;5035018;28;19959;-36
2022/08/09 10:52:08;;;;;;;;;;;;;;;24.96;46.84;102773.53;5034615;28;19917;-36
2022/08/09 10:54:33;;;;;;;;;;;;;;;25.12;45.19;102775.16;5035442;28;19913;-36
2022/08/09 10:57:25;;;;;;;;;;;;;;;25.21;45.12;102767.09;5035182;28;19959;-36
2022/08/09 10:59:50;;;;;;;;;;;;;;;25.38;45.98;102773.13;5036610;28;20281;-36
2022/08/09 11:02:34;;;;;;;;;;;;;;;25.48;45.24;102769.47;5035101;28;19913;-36
2022/08/09 11:05:15;;;;;;;;;;;;;;;25.58;43.22;102774.97;5034980;28;19917;-37
2022/08/09 11:07:40;;;;;;;;;;;;;;;25.59;42.01;102773.84;5035251;28;20276;-37
2022/08/09 11:10:06;;;;;;;;;;;;;;;25.67;43.50;102776.84;5034708;28;19913;-36
2022/08/09 11:12:31;;;;;;;;;;;;;;;25.80;43.42;102775.38;5034365;28;19957;-36
2022/08/09 11:14:57;;;;;;;;;;;;;;;25.86;42.76;102767.84;5034595;28;20000;-36
2022/08/09 11:17:25;;;;;;;;;;;;;;;25.88;42.22;102766.47;5034472;28;19920;-35
2022/08/09 11:19:53;;;;;;;;;;;;;;;25.87;43.29;102769.53;5034982;28;19913;-36
2022/08/09 11:22:19;;;;;;;;;;;;;;;25.98;43.16;102765.56;5034429;28;19920;-35
2022/08/09 11:25:03;;;;;;;;;;;;;;;26.13;44.26;102772.91;5034333;28;19913;-35
2022/08/09 11:27:33;;;;;;;;;;;;;;;26.15;41.37;102763.19;5034673;28;19999;-36
2022/08/09 11:29:58;;;;;;;;;;;;;;;26.07;40.77;102769.38;5034326;28;19920;-36
2022/08/09 11:32:39;;;;;;;;;;;;;;;26.18;40.63;102754.28;5034239;28;19917;-35
2022/08/09 11:35:12;;;;;;;;;;;;;;;26.18;39.94;102770.09;5034668;28;19913;-35
2022/08/09 11:37:38;;;;;;;;;;;;;;;26.25;41.32;102748.41;5035116;28;19913;-35
2022/08/09 11:40:05;;;;;;;;;;;;;;;26.40;42.09;102751.06;5034437;28;19998;-36
2022/08/09 11:42:37;;;;;;;;;;;;;;;26.62;41.07;102752.50;5034114;28;19920;-41
2022/08/09 11:45:03;;;;;;;;;;;;;;;26.74;41.28;102750.16;5034546;28;19913;-36
2022/08/09 11:47:49;;;;;;;;;;;;;;;26.90;40.89;102745.25;5033785;28;20311;-36
2022/08/09 11:50:14;;;;;;;;;;;;;;;27.01;40.14;102744.00;5034042;28;19913;-36
2022/08/09 11:52:58;;;;;;;;;;;;;;;27.10;39.59;102742.25;5033859;28;20280;-36
2022/08/09 11:55:29;;;;;;;;;;;;;;;27.07;38.18;102734.47;5034740;28;20372;-36
2022/08/09 11:57:54;;;;;;;;;;;;;;;27.11;39.89;102737.53;5033868;28;19936;-37
2022/08/09 12:00:21;;;;;;;;;;;;;;;26.94;37.21;102744.38;5033560;28;19913;-37
2022/08/09 12:02:47;;;;;;;;;;;;;;;26.75;38.11;102735.16;5033888;28;19913;-36
2022/08/09 12:05:12;;;;;;;;;;;;;;;26.79;38.39;102733.47;5033740;28;19999;-37
2022/08/09 12:07:37;;;;;;;;;;;;;;;26.91;40.48;102733.03;5033311;28;19995;-36
2022/08/09 12:10:03;;;;;;;;;;;;;;;26.92;38.97;102729.13;5034161;28;19963;-37
2022/08/09 12:12:42;;;;;;;;;;;;;;;27.05;38.27;102728.41;5034372;28;20258;-37
2022/08/09 12:15:24;;;;;;;;;;;;;;;27.17;36.76;102728.00;5034008;28;19917;-35
2022/08/09 12:17:50;;;;;;;;;;;;;;;27.07;36.14;102722.56;5033410;28;20340;-36
2022/08/09 12:20:20;;;;;;;;;;;;;;;27.13;38.33;102716.69;5033417;28;19967;-36
2022/08/09 12:22:45;;;;;;;;;;;;;;;27.26;38.77;102719.84;5032781;28;19913;-35
2022/08/09 12:25:11;;;;;;;;;;;;;;;27.25;37.54;102721.78;5033325;28;20285;-35
2022/08/09 12:27:36;;;;;;;;;;;;;;;27.36;37.86;102716.91;5033214;28;20241;-35
2022/08/09 12:30:02;;;;;;;;;;;;;;;27.29;37.21;102713.69;5033206;28;19913;-36
2022/08/09 12:32:27;;;;;;;;;;;;;;;27.35;36.75;102721.63;5033382;28;19913;-36
2022/08/09 12:34:57;;;;;;;;;;;;;;;27.52;37.54;102714.72;5033129;28;20404;-35